sensor_id;sensor_type;location;lat;lon;timestamp;temperature;humidity
46055;DHT22;31788;6.954;-71.872;2023-05-10T00:01:19;27.50;98.20
46055;DHT22;31788;6.954;-71.872;2023-05-10T00:03:45;27.50;98.50
46055;DHT22;31788;6.954;-71.872;2023-05-10T00:06:12;27.50;98.10
46055;DHT22;31788;6.954;-71.872;2023-05-10T00:08:38;27.30;98.20
46055;DHT22;31788;6.954;-71.872;2023-05-10T00:11:05;27.40;98.40
46055;DHT22;31788;6.954;-71.872;2023-05-10T00:13:32;27.30;98.60
46055;DHT22;31788;6.954;-71.872;2023-05-10T00:15:59;27.30;99.00
46055;DHT22;31788;6.954;-71.872;2023-05-10T00:18:26;27.30;99.10
46055;DHT22;31788;6.954;-71.872;2023-05-10T00:20:53;27.30;99.40
46055;DHT22;31788;6.954;-71.872;2023-05-10T00:23:20;27.30;99.40
46055;DHT22;31788;6.954;-71.872;2023-05-10T00:25:46;27.40;99.30
46055;DHT22;31788;6.954;-71.872;2023-05-10T00:28:13;27.40;99.30
46055;DHT22;31788;6.954;-71.872;2023-05-10T00:30:39;27.40;99.20
46055;DHT22;31788;6.954;-71.872;2023-05-10T00:33:06;27.40;99.20
46055;DHT22;31788;6.954;-71.872;2023-05-10T00:35:32;27.30;99.40
46055;DHT22;31788;6.954;-71.872;2023-05-10T00:37:59;27.30;99.70
46055;DHT22;31788;6.954;-71.872;2023-05-10T00:40:26;27.20;99.90
46055;DHT22;31788;6.954;-71.872;2023-05-10T00:42:53;27.20;99.60
46055;DHT22;31788;6.954;-71.872;2023-05-10T00:45:19;27.20;99.60
46055;DHT22;31788;6.954;-71.872;2023-05-10T00:47:46;27.20;99.60
46055;DHT22;31788;6.954;-71.872;2023-05-10T00:50:14;27.20;99.40
46055;DHT22;31788;6.954;-71.872;2023-05-10T00:52:42;27.20;99.70
46055;DHT22;31788;6.954;-71.872;2023-05-10T00:55:10;27.20;99.50
46055;DHT22;31788;6.954;-71.872;2023-05-10T00:57:38;27.10;99.40
46055;DHT22;31788;6.954;-71.872;2023-05-10T01:00:05;27.10;99.50
46055;DHT22;31788;6.954;-71.872;2023-05-10T01:02:34;27.20;99.30
46055;DHT22;31788;6.954;-71.872;2023-05-10T01:05:02;27.20;99.10
46055;DHT22;31788;6.954;-71.872;2023-05-10T01:07:32;27.20;98.90
46055;DHT22;31788;6.954;-71.872;2023-05-10T01:09:58;27.20;98.90
46055;DHT22;31788;6.954;-71.872;2023-05-10T01:12:26;27.20;99.20
46055;DHT22;31788;6.954;-71.872;2023-05-10T01:14:53;27.20;99.30
46055;DHT22;31788;6.954;-71.872;2023-05-10T01:17:21;27.10;99.40
46055;DHT22;31788;6.954;-71.872;2023-05-10T01:19:49;27.10;99.30
46055;DHT22;31788;6.954;-71.872;2023-05-10T01:36:30;27.00;99.90
46055;DHT22;31788;6.954;-71.872;2023-05-10T01:41:49;27.00;99.90
46055;DHT22;31788;6.954;-71.872;2023-05-10T01:47:09;27.00;99.90
46055;DHT22;31788;6.954;-71.872;2023-05-10T01:49:59;27.00;99.90
46055;DHT22;31788;6.954;-71.872;2023-05-10T01:52:32;26.90;99.90
46055;DHT22;31788;6.954;-71.872;2023-05-10T01:55:06;27.00;99.90
46055;DHT22;31788;6.954;-71.872;2023-05-10T01:57:35;27.00;99.90
46055;DHT22;31788;6.954;-71.872;2023-05-10T02:00:04;26.90;99.90
46055;DHT22;31788;6.954;-71.872;2023-05-10T02:02:35;26.90;99.90
46055;DHT22;31788;6.954;-71.872;2023-05-10T02:05:07;26.90;99.90
46055;DHT22;31788;6.954;-71.872;2023-05-10T02:07:37;26.90;99.90
46055;DHT22;31788;6.954;-71.872;2023-05-10T02:10:09;26.90;99.90
46055;DHT22;31788;6.954;-71.872;2023-05-10T02:12:41;26.80;99.90
46055;DHT22;31788;6.954;-71.872;2023-05-10T02:15:10;26.80;99.90
46055;DHT22;31788;6.954;-71.872;2023-05-10T02:17:38;26.70;99.90
46055;DHT22;31788;6.954;-71.872;2023-05-10T02:20:07;26.70;99.90
46055;DHT22;31788;6.954;-71.872;2023-05-10T02:22:35;26.70;99.90
46055;DHT22;31788;6.954;-71.872;2023-05-10T02:25:02;26.60;99.90
46055;DHT22;31788;6.954;-71.872;2023-05-10T02:27:29;26.60;99.90
46055;DHT22;31788;6.954;-71.872;2023-05-10T02:29:57;26.60;99.90
46055;DHT22;31788;6.954;-71.872;2023-05-10T02:32:25;26.50;99.90
46055;DHT22;31788;6.954;-71.872;2023-05-10T02:34:53;26.50;99.90
46055;DHT22;31788;6.954;-71.872;2023-05-10T02:37:21;26.50;99.90
46055;DHT22;31788;6.954;-71.872;2023-05-10T02:39:50;26.40;99.90
46055;DHT22;31788;6.954;-71.872;2023-05-10T02:42:22;26.40;99.90
46055;DHT22;31788;6.954;-71.872;2023-05-10T02:44:52;26.40;99.90
46055;DHT22;31788;6.954;-71.872;2023-05-10T02:47:19;26.40;99.90
46055;DHT22;31788;6.954;-71.872;2023-05-10T02:49:47;26.40;99.90
46055;DHT22;31788;6.954;-71.872;2023-05-10T02:52:26;26.40;99.90
46055;DHT22;31788;6.954;-71.872;2023-05-10T02:54:55;26.50;99.90
46055;DHT22;31788;6.954;-71.872;2023-05-10T02:57:27;26.40;99.90
46055;DHT22;31788;6.954;-71.872;2023-05-10T02:59:54;26.40;99.90
46055;DHT22;31788;6.954;-71.872;2023-05-10T03:02:21;26.30;99.90
46055;DHT22;31788;6.954;-71.872;2023-05-10T03:04:48;26.30;99.90
46055;DHT22;31788;6.954;-71.872;2023-05-10T03:07:16;26.30;99.90
46055;DHT22;31788;6.954;-71.872;2023-05-10T03:09:45;26.30;99.90
46055;DHT22;31788;6.954;-71.872;2023-05-10T03:15:11;26.20;99.90
46055;DHT22;31788;6.954;-71.872;2023-05-10T03:20:10;26.20;99.90
46055;DHT22;31788;6.954;-71.872;2023-05-10T03:22:40;26.20;99.90
46055;DHT22;31788;6.954;-71.872;2023-05-10T03:25:10;26.30;99.90
46055;DHT22;31788;6.954;-71.872;2023-05-10T03:27:40;26.30;99.90
46055;DHT22;31788;6.954;-71.872;2023-05-10T03:30:10;26.30;99.90
46055;DHT22;31788;6.954;-71.872;2023-05-10T03:32:37;26.30;99.90
46055;DHT22;31788;6.954;-71.872;2023-05-10T03:35:11;26.30;99.90
46055;DHT22;31788;6.954;-71.872;2023-05-10T03:37:39;26.30;99.90
46055;DHT22;31788;6.954;-71.872;2023-05-10T03:40:06;26.30;99.90
46055;DHT22;31788;6.954;-71.872;2023-05-10T03:42:33;26.30;99.90
46055;DHT22;31788;6.954;-71.872;2023-05-10T03:45:00;26.30;99.90
46055;DHT22;31788;6.954;-71.872;2023-05-10T03:47:26;26.20;99.90
46055;DHT22;31788;6.954;-71.872;2023-05-10T03:49:53;26.10;99.90
46055;DHT22;31788;6.954;-71.872;2023-05-10T03:52:21;26.10;99.90
46055;DHT22;31788;6.954;-71.872;2023-05-10T03:54:47;26.10;99.90
46055;DHT22;31788;6.954;-71.872;2023-05-10T03:57:14;26.10;99.90
46055;DHT22;31788;6.954;-71.872;2023-05-10T03:59:41;26.10;99.90
46055;DHT22;31788;6.954;-71.872;2023-05-10T04:02:07;26.20;99.90
46055;DHT22;31788;6.954;-71.872;2023-05-10T04:04:34;26.20;99.90
46055;DHT22;31788;6.954;-71.872;2023-05-10T04:07:00;26.20;99.90
46055;DHT22;31788;6.954;-71.872;2023-05-10T04:09:27;26.30;99.90
46055;DHT22;31788;6.954;-71.872;2023-05-10T04:11:54;26.30;99.90
46055;DHT22;31788;6.954;-71.872;2023-05-10T04:14:21;26.30;99.90
46055;DHT22;31788;6.954;-71.872;2023-05-10T04:16:47;26.30;99.90
46055;DHT22;31788;6.954;-71.872;2023-05-10T04:19:14;26.30;99.90
46055;DHT22;31788;6.954;-71.872;2023-05-10T04:21:40;26.30;99.90
46055;DHT22;31788;6.954;-71.872;2023-05-10T04:24:07;26.30;99.90
46055;DHT22;31788;6.954;-71.872;2023-05-10T04:26:34;26.30;99.90
46055;DHT22;31788;6.954;-71.872;2023-05-10T04:29:01;26.40;99.90
46055;DHT22;31788;6.954;-71.872;2023-05-10T04:31:28;26.40;99.90
46055;DHT22;31788;6.954;-71.872;2023-05-10T04:33:55;26.40;99.90
46055;DHT22;31788;6.954;-71.872;2023-05-10T04:36:21;26.40;99.90
46055;DHT22;31788;6.954;-71.872;2023-05-10T04:38:48;26.40;99.90
46055;DHT22;31788;6.954;-71.872;2023-05-10T04:41:15;26.40;99.90
46055;DHT22;31788;6.954;-71.872;2023-05-10T04:43:41;26.40;99.90
46055;DHT22;31788;6.954;-71.872;2023-05-10T04:46:08;26.30;99.90
46055;DHT22;31788;6.954;-71.872;2023-05-10T04:48:35;26.40;99.90
46055;DHT22;31788;6.954;-71.872;2023-05-10T04:51:01;26.40;99.50
46055;DHT22;31788;6.954;-71.872;2023-05-10T04:53:30;26.40;99.30
46055;DHT22;31788;6.954;-71.872;2023-05-10T04:55:56;26.40;99.50
46055;DHT22;31788;6.954;-71.872;2023-05-10T04:58:23;26.40;99.40
46055;DHT22;31788;6.954;-71.872;2023-05-10T05:00:49;26.40;99.10
46055;DHT22;31788;6.954;-71.872;2023-05-10T05:03:16;26.40;99.20
46055;DHT22;31788;6.954;-71.872;2023-05-10T05:05:44;26.50;99.10
46055;DHT22;31788;6.954;-71.872;2023-05-10T05:08:11;26.50;98.80
46055;DHT22;31788;6.954;-71.872;2023-05-10T05:10:37;26.50;99.20
46055;DHT22;31788;6.954;-71.872;2023-05-10T05:13:04;26.50;99.60
46055;DHT22;31788;6.954;-71.872;2023-05-10T05:15:31;26.50;99.90
46055;DHT22;31788;6.954;-71.872;2023-05-10T05:17:58;26.40;99.40
46055;DHT22;31788;6.954;-71.872;2023-05-10T05:20:24;26.40;99.50
46055;DHT22;31788;6.954;-71.872;2023-05-10T05:22:51;26.40;99.90
46055;DHT22;31788;6.954;-71.872;2023-05-10T05:25:18;26.30;99.90
46055;DHT22;31788;6.954;-71.872;2023-05-10T05:27:44;26.30;99.90
46055;DHT22;31788;6.954;-71.872;2023-05-10T05:30:11;26.30;99.90
46055;DHT22;31788;6.954;-71.872;2023-05-10T05:32:38;26.30;99.90
46055;DHT22;31788;6.954;-71.872;2023-05-10T05:35:05;26.30;99.90
46055;DHT22;31788;6.954;-71.872;2023-05-10T05:37:32;26.20;99.90
46055;DHT22;31788;6.954;-71.872;2023-05-10T05:39:58;26.20;99.90
46055;DHT22;31788;6.954;-71.872;2023-05-10T05:42:27;26.20;99.90
46055;DHT22;31788;6.954;-71.872;2023-05-10T05:44:53;26.20;99.90
46055;DHT22;31788;6.954;-71.872;2023-05-10T05:47:20;26.20;99.90
46055;DHT22;31788;6.954;-71.872;2023-05-10T05:49:47;26.20;99.90
46055;DHT22;31788;6.954;-71.872;2023-05-10T05:52:13;26.20;99.90
46055;DHT22;31788;6.954;-71.872;2023-05-10T05:54:40;26.20;99.90
46055;DHT22;31788;6.954;-71.872;2023-05-10T05:57:06;26.30;99.90
46055;DHT22;31788;6.954;-71.872;2023-05-10T05:59:33;26.30;99.90
46055;DHT22;31788;6.954;-71.872;2023-05-10T06:02:00;26.30;99.90
46055;DHT22;31788;6.954;-71.872;2023-05-10T06:04:26;26.20;99.90
46055;DHT22;31788;6.954;-71.872;2023-05-10T06:06:53;26.20;99.90
46055;DHT22;31788;6.954;-71.872;2023-05-10T06:09:20;26.20;99.60
46055;DHT22;31788;6.954;-71.872;2023-05-10T06:11:46;26.20;99.30
46055;DHT22;31788;6.954;-71.872;2023-05-10T06:14:13;26.20;99.30
46055;DHT22;31788;6.954;-71.872;2023-05-10T06:16:39;26.20;99.60
46055;DHT22;31788;6.954;-71.872;2023-05-10T06:19:07;26.20;99.80
46055;DHT22;31788;6.954;-71.872;2023-05-10T06:21:34;26.20;99.90
46055;DHT22;31788;6.954;-71.872;2023-05-10T06:24:00;26.20;99.90
46055;DHT22;31788;6.954;-71.872;2023-05-10T06:26:28;26.10;99.90
46055;DHT22;31788;6.954;-71.872;2023-05-10T06:28:55;26.10;99.90
46055;DHT22;31788;6.954;-71.872;2023-05-10T06:31:22;26.10;99.90
46055;DHT22;31788;6.954;-71.872;2023-05-10T06:33:48;26.00;99.90
46055;DHT22;31788;6.954;-71.872;2023-05-10T06:36:15;26.00;99.80
46055;DHT22;31788;6.954;-71.872;2023-05-10T06:38:41;26.10;99.90
46055;DHT22;31788;6.954;-71.872;2023-05-10T06:41:08;26.10;99.80
46055;DHT22;31788;6.954;-71.872;2023-05-10T06:43:35;26.10;99.90
46055;DHT22;31788;6.954;-71.872;2023-05-10T06:46:02;26.10;99.90
46055;DHT22;31788;6.954;-71.872;2023-05-10T06:48:29;26.10;99.70
46055;DHT22;31788;6.954;-71.872;2023-05-10T06:50:56;26.10;99.40
46055;DHT22;31788;6.954;-71.872;2023-05-10T06:53:22;26.10;99.60
46055;DHT22;31788;6.954;-71.872;2023-05-10T06:55:49;26.10;99.80
46055;DHT22;31788;6.954;-71.872;2023-05-10T06:58:16;26.10;99.90
46055;DHT22;31788;6.954;-71.872;2023-05-10T07:00:43;26.00;99.70
46055;DHT22;31788;6.954;-71.872;2023-05-10T07:03:11;26.10;99.90
46055;DHT22;31788;6.954;-71.872;2023-05-10T07:05:37;26.00;99.90
46055;DHT22;31788;6.954;-71.872;2023-05-10T07:08:04;25.90;99.90
46055;DHT22;31788;6.954;-71.872;2023-05-10T07:10:31;25.90;99.90
46055;DHT22;31788;6.954;-71.872;2023-05-10T07:12:57;25.90;99.90
46055;DHT22;31788;6.954;-71.872;2023-05-10T07:15:24;25.80;99.90
46055;DHT22;31788;6.954;-71.872;2023-05-10T07:17:51;25.70;99.90
46055;DHT22;31788;6.954;-71.872;2023-05-10T07:20:18;25.70;99.90
46055;DHT22;31788;6.954;-71.872;2023-05-10T07:22:44;25.70;99.90
46055;DHT22;31788;6.954;-71.872;2023-05-10T07:25:11;25.70;99.90
46055;DHT22;31788;6.954;-71.872;2023-05-10T07:27:37;25.70;99.90
46055;DHT22;31788;6.954;-71.872;2023-05-10T07:30:04;25.70;99.90
46055;DHT22;31788;6.954;-71.872;2023-05-10T07:32:31;25.60;99.90
46055;DHT22;31788;6.954;-71.872;2023-05-10T07:34:58;25.70;99.90
46055;DHT22;31788;6.954;-71.872;2023-05-10T07:37:24;25.70;99.90
46055;DHT22;31788;6.954;-71.872;2023-05-10T07:39:51;25.70;99.90
46055;DHT22;31788;6.954;-71.872;2023-05-10T07:42:18;25.70;99.90
46055;DHT22;31788;6.954;-71.872;2023-05-10T07:44:44;25.70;99.90
46055;DHT22;31788;6.954;-71.872;2023-05-10T07:47:11;25.70;99.90
46055;DHT22;31788;6.954;-71.872;2023-05-10T07:49:38;25.70;99.90
46055;DHT22;31788;6.954;-71.872;2023-05-10T07:52:04;25.60;99.90
46055;DHT22;31788;6.954;-71.872;2023-05-10T07:54:31;25.60;99.90
46055;DHT22;31788;6.954;-71.872;2023-05-10T07:56:57;25.50;99.90
46055;DHT22;31788;6.954;-71.872;2023-05-10T07:59:25;25.50;99.90
46055;DHT22;31788;6.954;-71.872;2023-05-10T08:01:52;25.60;99.90
46055;DHT22;31788;6.954;-71.872;2023-05-10T08:04:18;25.50;99.90
46055;DHT22;31788;6.954;-71.872;2023-05-10T08:06:45;25.60;99.90
46055;DHT22;31788;6.954;-71.872;2023-05-10T08:09:12;25.50;99.90
46055;DHT22;31788;6.954;-71.872;2023-05-10T08:11:38;25.60;99.90
46055;DHT22;31788;6.954;-71.872;2023-05-10T08:14:05;25.60;99.90
46055;DHT22;31788;6.954;-71.872;2023-05-10T08:16:32;25.60;99.90
46055;DHT22;31788;6.954;-71.872;2023-05-10T08:18:58;25.70;99.90
46055;DHT22;31788;6.954;-71.872;2023-05-10T08:21:25;25.70;99.90
46055;DHT22;31788;6.954;-71.872;2023-05-10T08:23:52;25.70;99.90
46055;DHT22;31788;6.954;-71.872;2023-05-10T08:26:18;25.70;99.90
46055;DHT22;31788;6.954;-71.872;2023-05-10T08:28:46;25.80;99.90
46055;DHT22;31788;6.954;-71.872;2023-05-10T08:31:13;25.80;99.90
46055;DHT22;31788;6.954;-71.872;2023-05-10T08:33:40;25.80;99.90
46055;DHT22;31788;6.954;-71.872;2023-05-10T08:36:06;25.80;99.90
46055;DHT22;31788;6.954;-71.872;2023-05-10T08:38:33;25.90;99.90
46055;DHT22;31788;6.954;-71.872;2023-05-10T08:41:01;25.90;99.90
46055;DHT22;31788;6.954;-71.872;2023-05-10T08:43:29;25.90;99.90
46055;DHT22;31788;6.954;-71.872;2023-05-10T08:45:56;25.80;99.90
46055;DHT22;31788;6.954;-71.872;2023-05-10T08:48:24;25.80;99.90
46055;DHT22;31788;6.954;-71.872;2023-05-10T08:50:53;25.90;99.90
46055;DHT22;31788;6.954;-71.872;2023-05-10T08:53:24;25.90;99.90
46055;DHT22;31788;6.954;-71.872;2023-05-10T08:55:54;25.90;99.90
46055;DHT22;31788;6.954;-71.872;2023-05-10T08:58:21;25.90;99.90
46055;DHT22;31788;6.954;-71.872;2023-05-10T09:00:49;25.80;99.90
46055;DHT22;31788;6.954;-71.872;2023-05-10T09:03:19;25.80;99.90
46055;DHT22;31788;6.954;-71.872;2023-05-10T09:05:46;25.70;99.90
46055;DHT22;31788;6.954;-71.872;2023-05-10T09:08:13;25.70;99.90
46055;DHT22;31788;6.954;-71.872;2023-05-10T09:10:43;25.70;99.90
46055;DHT22;31788;6.954;-71.872;2023-05-10T09:13:14;25.80;99.90
46055;DHT22;31788;6.954;-71.872;2023-05-10T09:15:42;25.80;99.90
46055;DHT22;31788;6.954;-71.872;2023-05-10T09:18:09;25.80;99.90
46055;DHT22;31788;6.954;-71.872;2023-05-10T09:20:36;25.80;99.90
46055;DHT22;31788;6.954;-71.872;2023-05-10T09:23:03;25.90;99.90
46055;DHT22;31788;6.954;-71.872;2023-05-10T09:25:29;25.90;99.90
46055;DHT22;31788;6.954;-71.872;2023-05-10T09:27:56;25.90;99.90
46055;DHT22;31788;6.954;-71.872;2023-05-10T09:30:28;25.90;99.90
46055;DHT22;31788;6.954;-71.872;2023-05-10T09:32:56;25.90;99.90
46055;DHT22;31788;6.954;-71.872;2023-05-10T09:35:27;25.90;99.90
46055;DHT22;31788;6.954;-71.872;2023-05-10T09:37:56;25.90;99.90
46055;DHT22;31788;6.954;-71.872;2023-05-10T09:40:25;25.90;99.90
46055;DHT22;31788;6.954;-71.872;2023-05-10T09:45:25;25.90;99.90
46055;DHT22;31788;6.954;-71.872;2023-05-10T09:47:52;26.00;99.90
46055;DHT22;31788;6.954;-71.872;2023-05-10T09:50:20;25.90;99.90
46055;DHT22;31788;6.954;-71.872;2023-05-10T09:53:01;25.90;99.90
46055;DHT22;31788;6.954;-71.872;2023-05-10T09:55:42;25.90;99.90
46055;DHT22;31788;6.954;-71.872;2023-05-10T09:58:15;25.90;99.90
46055;DHT22;31788;6.954;-71.872;2023-05-10T10:00:43;26.00;99.90
46055;DHT22;31788;6.954;-71.872;2023-05-10T10:03:19;26.00;99.90
46055;DHT22;31788;6.954;-71.872;2023-05-10T10:05:47;26.00;99.90
46055;DHT22;31788;6.954;-71.872;2023-05-10T10:08:15;25.90;99.90
46055;DHT22;31788;6.954;-71.872;2023-05-10T10:10:41;25.90;99.90
46055;DHT22;31788;6.954;-71.872;2023-05-10T10:13:10;25.90;99.90
46055;DHT22;31788;6.954;-71.872;2023-05-10T10:15:37;25.90;99.90
46055;DHT22;31788;6.954;-71.872;2023-05-10T10:18:05;25.90;99.90
46055;DHT22;31788;6.954;-71.872;2023-05-10T10:20:32;25.80;99.90
46055;DHT22;31788;6.954;-71.872;2023-05-10T10:22:59;25.80;99.90
46055;DHT22;31788;6.954;-71.872;2023-05-10T10:25:26;25.90;99.90
46055;DHT22;31788;6.954;-71.872;2023-05-10T10:30:32;25.90;99.90
46055;DHT22;31788;6.954;-71.872;2023-05-10T10:36:06;25.80;99.90
46055;DHT22;31788;6.954;-71.872;2023-05-10T10:38:37;25.80;99.90
46055;DHT22;31788;6.954;-71.872;2023-05-10T10:41:26;25.80;99.90
46055;DHT22;31788;6.954;-71.872;2023-05-10T10:52:33;25.70;99.90
46055;DHT22;31788;6.954;-71.872;2023-05-10T10:55:09;25.70;99.90
46055;DHT22;31788;6.954;-71.872;2023-05-10T10:57:56;25.70;99.90
46055;DHT22;31788;6.954;-71.872;2023-05-10T11:00:32;25.70;99.90
46055;DHT22;31788;6.954;-71.872;2023-05-10T11:03:13;25.70;99.90
46055;DHT22;31788;6.954;-71.872;2023-05-10T11:05:48;25.60;99.90
46055;DHT22;31788;6.954;-71.872;2023-05-10T11:13:30;25.60;99.90
46055;DHT22;31788;6.954;-71.872;2023-05-10T11:15:57;25.50;99.90
46055;DHT22;31788;6.954;-71.872;2023-05-10T11:18:27;25.50;99.90
46055;DHT22;31788;6.954;-71.872;2023-05-10T11:21:03;25.60;99.90
46055;DHT22;31788;6.954;-71.872;2023-05-10T11:26:08;25.70;99.90
46055;DHT22;31788;6.954;-71.872;2023-05-10T11:28:48;25.70;99.90
46055;DHT22;31788;6.954;-71.872;2023-05-10T11:31:16;25.80;99.90
46055;DHT22;31788;6.954;-71.872;2023-05-10T11:33:47;25.80;99.90
46055;DHT22;31788;6.954;-71.872;2023-05-10T11:36:16;25.70;99.90
46055;DHT22;31788;6.954;-71.872;2023-05-10T11:38:43;25.80;99.90
46055;DHT22;31788;6.954;-71.872;2023-05-10T11:41:11;25.80;99.90
46055;DHT22;31788;6.954;-71.872;2023-05-10T11:43:41;25.80;99.90
46055;DHT22;31788;6.954;-71.872;2023-05-10T11:46:13;25.80;99.90
46055;DHT22;31788;6.954;-71.872;2023-05-10T11:48:40;25.80;99.90
46055;DHT22;31788;6.954;-71.872;2023-05-10T11:51:11;25.90;99.90
46055;DHT22;31788;6.954;-71.872;2023-05-10T11:53:37;25.90;99.90
46055;DHT22;31788;6.954;-71.872;2023-05-10T11:56:09;25.90;99.90
46055;DHT22;31788;6.954;-71.872;2023-05-10T11:58:37;25.90;99.90
46055;DHT22;31788;6.954;-71.872;2023-05-10T12:01:05;25.90;99.90
46055;DHT22;31788;6.954;-71.872;2023-05-10T12:03:33;25.90;99.90
46055;DHT22;31788;6.954;-71.872;2023-05-10T12:06:01;25.90;99.90
46055;DHT22;31788;6.954;-71.872;2023-05-10T12:08:29;26.00;99.90
46055;DHT22;31788;6.954;-71.872;2023-05-10T12:11:08;26.00;99.90
46055;DHT22;31788;6.954;-71.872;2023-05-10T12:13:39;26.00;99.90
46055;DHT22;31788;6.954;-71.872;2023-05-10T12:16:28;26.00;99.90
46055;DHT22;31788;6.954;-71.872;2023-05-10T12:19:00;26.10;99.90
46055;DHT22;31788;6.954;-71.872;2023-05-10T12:21:28;26.10;99.90
46055;DHT22;31788;6.954;-71.872;2023-05-10T12:24:02;26.10;99.90
46055;DHT22;31788;6.954;-71.872;2023-05-10T12:26:31;26.10;99.90
46055;DHT22;31788;6.954;-71.872;2023-05-10T12:29:18;26.20;99.90
46055;DHT22;31788;6.954;-71.872;2023-05-10T12:36:55;26.20;99.90
46055;DHT22;31788;6.954;-71.872;2023-05-10T12:39:22;26.30;99.90
46055;DHT22;31788;6.954;-71.872;2023-05-10T12:41:49;26.30;99.90
46055;DHT22;31788;6.954;-71.872;2023-05-10T12:44:16;26.40;99.90
46055;DHT22;31788;6.954;-71.872;2023-05-10T12:46:43;26.40;99.90
46055;DHT22;31788;6.954;-71.872;2023-05-10T12:49:09;26.40;99.90
46055;DHT22;31788;6.954;-71.872;2023-05-10T12:51:36;26.40;99.90
46055;DHT22;31788;6.954;-71.872;2023-05-10T12:54:03;26.40;99.90
46055;DHT22;31788;6.954;-71.872;2023-05-10T12:56:29;26.40;99.90
46055;DHT22;31788;6.954;-71.872;2023-05-10T12:58:56;26.30;99.90
46055;DHT22;31788;6.954;-71.872;2023-05-10T13:01:23;26.30;99.90
46055;DHT22;31788;6.954;-71.872;2023-05-10T13:03:49;26.30;99.90
46055;DHT22;31788;6.954;-71.872;2023-05-10T13:06:16;26.40;99.90
46055;DHT22;31788;6.954;-71.872;2023-05-10T13:08:43;26.40;99.90
46055;DHT22;31788;6.954;-71.872;2023-05-10T13:11:09;26.40;99.90
46055;DHT22;31788;6.954;-71.872;2023-05-10T13:13:36;26.40;99.90
46055;DHT22;31788;6.954;-71.872;2023-05-10T13:16:03;26.50;99.90
46055;DHT22;31788;6.954;-71.872;2023-05-10T13:18:29;26.50;99.90
46055;DHT22;31788;6.954;-71.872;2023-05-10T13:20:56;26.50;99.90
46055;DHT22;31788;6.954;-71.872;2023-05-10T13:23:23;26.60;99.90
46055;DHT22;31788;6.954;-71.872;2023-05-10T13:25:50;26.60;99.90
46055;DHT22;31788;6.954;-71.872;2023-05-10T13:28:16;26.60;99.90
46055;DHT22;31788;6.954;-71.872;2023-05-10T13:30:43;26.70;99.90
46055;DHT22;31788;6.954;-71.872;2023-05-10T13:33:09;26.70;99.90
46055;DHT22;31788;6.954;-71.872;2023-05-10T13:35:36;26.80;99.90
46055;DHT22;31788;6.954;-71.872;2023-05-10T13:38:03;26.90;99.90
46055;DHT22;31788;6.954;-71.872;2023-05-10T13:40:30;26.90;99.90
46055;DHT22;31788;6.954;-71.872;2023-05-10T13:42:56;26.90;99.90
46055;DHT22;31788;6.954;-71.872;2023-05-10T13:45:23;26.90;99.90
46055;DHT22;31788;6.954;-71.872;2023-05-10T13:47:50;26.80;99.90
46055;DHT22;31788;6.954;-71.872;2023-05-10T13:50:19;26.80;99.90
46055;DHT22;31788;6.954;-71.872;2023-05-10T13:52:45;26.80;99.90
46055;DHT22;31788;6.954;-71.872;2023-05-10T13:55:13;26.80;99.90
46055;DHT22;31788;6.954;-71.872;2023-05-10T13:57:39;26.90;99.90
46055;DHT22;31788;6.954;-71.872;2023-05-10T14:00:07;26.90;99.90
46055;DHT22;31788;6.954;-71.872;2023-05-10T14:02:35;26.90;99.90
46055;DHT22;31788;6.954;-71.872;2023-05-10T14:05:02;26.90;99.90
46055;DHT22;31788;6.954;-71.872;2023-05-10T14:07:29;26.90;99.90
46055;DHT22;31788;6.954;-71.872;2023-05-10T14:09:55;27.00;99.90
46055;DHT22;31788;6.954;-71.872;2023-05-10T14:12:22;27.00;99.90
46055;DHT22;31788;6.954;-71.872;2023-05-10T14:14:49;27.10;99.90
46055;DHT22;31788;6.954;-71.872;2023-05-10T14:17:15;27.20;99.90
46055;DHT22;31788;6.954;-71.872;2023-05-10T14:19:42;27.20;99.90
46055;DHT22;31788;6.954;-71.872;2023-05-10T14:22:09;27.30;99.70
46055;DHT22;31788;6.954;-71.872;2023-05-10T14:24:37;27.20;99.90
46055;DHT22;31788;6.954;-71.872;2023-05-10T14:27:04;27.20;99.90
46055;DHT22;31788;6.954;-71.872;2023-05-10T14:29:31;27.30;99.80
46055;DHT22;31788;6.954;-71.872;2023-05-10T14:31:58;27.30;99.80
46055;DHT22;31788;6.954;-71.872;2023-05-10T14:34:25;27.30;99.60
46055;DHT22;31788;6.954;-71.872;2023-05-10T14:36:52;27.30;99.60
46055;DHT22;31788;6.954;-71.872;2023-05-10T14:39:18;27.30;99.50
46055;DHT22;31788;6.954;-71.872;2023-05-10T14:41:45;27.40;99.70
46055;DHT22;31788;6.954;-71.872;2023-05-10T14:44:13;27.40;99.50
46055;DHT22;31788;6.954;-71.872;2023-05-10T14:46:41;27.50;99.40
46055;DHT22;31788;6.954;-71.872;2023-05-10T14:49:08;27.60;99.50
46055;DHT22;31788;6.954;-71.872;2023-05-10T14:51:35;27.60;99.30
46055;DHT22;31788;6.954;-71.872;2023-05-10T14:54:02;27.60;99.60
46055;DHT22;31788;6.954;-71.872;2023-05-10T14:56:29;27.70;99.50
46055;DHT22;31788;6.954;-71.872;2023-05-10T14:58:56;27.70;99.50
46055;DHT22;31788;6.954;-71.872;2023-05-10T15:01:22;27.70;99.80
46055;DHT22;31788;6.954;-71.872;2023-05-10T15:03:49;27.70;99.40
46055;DHT22;31788;6.954;-71.872;2023-05-10T15:06:16;27.70;99.40
46055;DHT22;31788;6.954;-71.872;2023-05-10T15:08:43;27.80;99.30
46055;DHT22;31788;6.954;-71.872;2023-05-10T15:11:09;27.80;99.40
46055;DHT22;31788;6.954;-71.872;2023-05-10T15:13:36;27.80;99.30
46055;DHT22;31788;6.954;-71.872;2023-05-10T15:16:03;27.80;99.20
46055;DHT22;31788;6.954;-71.872;2023-05-10T15:18:29;27.90;99.30
46055;DHT22;31788;6.954;-71.872;2023-05-10T15:20:56;27.90;99.20
46055;DHT22;31788;6.954;-71.872;2023-05-10T15:23:24;27.90;99.30
46055;DHT22;31788;6.954;-71.872;2023-05-10T15:25:50;27.90;99.30
46055;DHT22;31788;6.954;-71.872;2023-05-10T15:28:23;27.90;99.30
46055;DHT22;31788;6.954;-71.872;2023-05-10T15:30:50;27.90;99.10
46055;DHT22;31788;6.954;-71.872;2023-05-10T15:33:17;28.00;99.00
46055;DHT22;31788;6.954;-71.872;2023-05-10T15:35:43;28.00;98.60
46055;DHT22;31788;6.954;-71.872;2023-05-10T15:38:10;28.00;98.60
46055;DHT22;31788;6.954;-71.872;2023-05-10T15:40:38;28.00;99.10
46055;DHT22;31788;6.954;-71.872;2023-05-10T15:43:05;28.10;98.90
46055;DHT22;31788;6.954;-71.872;2023-05-10T15:45:32;28.10;98.80
46055;DHT22;31788;6.954;-71.872;2023-05-10T15:47:59;28.10;98.80
46055;DHT22;31788;6.954;-71.872;2023-05-10T15:50:26;28.10;99.10
46055;DHT22;31788;6.954;-71.872;2023-05-10T15:52:52;28.10;99.00
46055;DHT22;31788;6.954;-71.872;2023-05-10T15:55:19;28.10;99.00
46055;DHT22;31788;6.954;-71.872;2023-05-10T15:57:46;28.10;98.50
46055;DHT22;31788;6.954;-71.872;2023-05-10T16:00:14;28.00;98.30
46055;DHT22;31788;6.954;-71.872;2023-05-10T16:02:41;28.00;98.70
46055;DHT22;31788;6.954;-71.872;2023-05-10T16:05:08;28.00;98.80
46055;DHT22;31788;6.954;-71.872;2023-05-10T16:07:35;28.00;99.00
46055;DHT22;31788;6.954;-71.872;2023-05-10T16:10:01;28.00;98.80
46055;DHT22;31788;6.954;-71.872;2023-05-10T16:12:31;28.00;98.90
46055;DHT22;31788;6.954;-71.872;2023-05-10T16:14:58;28.10;98.90